createdAt,value
2022-08-02T00:01:31.697Z,101478.13
2022-08-02T00:04:02.825Z,101477.53
2022-08-02T00:06:35.745Z,101492.28
2022-08-02T00:09:08.139Z,101488.47
2022-08-02T00:11:40.407Z,101496.69
2022-08-02T00:14:15.239Z,101495.00
2022-08-02T00:16:44.688Z,101497.34
2022-08-02T00:19:14.254Z,101506.19
2022-08-02T00:21:46.900Z,101501.53
2022-08-02T00:24:29.763Z,101506.06
2022-08-02T00:27:00.839Z,101501.53
2022-08-02T00:29:34.832Z,101510.72
2022-08-02T00:32:12.832Z,101513.66
2022-08-02T00:34:42.765Z,101510.13
2022-08-02T00:37:11.805Z,101507.91
2022-08-02T00:39:40.775Z,101524.56
2022-08-02T00:42:11.464Z,101514.03
2022-08-02T00:44:42.488Z,101518.44
2022-08-02T00:47:11.611Z,101519.16
2022-08-02T00:49:52.492Z,101526.28
2022-08-02T00:52:25.424Z,101527.75
2022-08-02T00:54:57.647Z,101529.72
2022-08-02T00:57:26.769Z,101538.19
2022-08-02T00:59:57.297Z,101533.63
2022-08-02T01:02:26.737Z,101525.94
2022-08-02T01:04:55.801Z,101529.00
2022-08-02T01:07:24.653Z,101530.94
2022-08-02T01:09:53.780Z,101536.50
2022-08-02T01:12:23.207Z,101530.78
2022-08-02T01:14:57.351Z,101541.28
2022-08-02T01:17:40.684Z,101540.84
2022-08-02T01:20:29.464Z,101548.09
2022-08-02T01:23:27.155Z,101546.94
2022-08-02T01:26:21.219Z,101542.75
2022-08-02T01:29:01.579Z,101548.88
2022-08-02T01:31:37.552Z,101554.59
2022-08-02T01:34:15.015Z,101547.44
2022-08-02T01:36:53.558Z,101549.81
2022-08-02T01:39:32.315Z,101546.59
2022-08-02T01:42:03.759Z,101549.72
2022-08-02T01:44:45.804Z,101553.06
2022-08-02T01:47:22.977Z,101549.06
2022-08-02T01:49:59.090Z,101544.03
2022-08-02T01:52:33.569Z,101547.06
2022-08-02T01:55:18.986Z,101547.69
2022-08-02T01:57:54.204Z,101543.72
2022-08-02T02:00:34.274Z,101550.06
2022-08-02T02:03:08.151Z,101547.47
2022-08-02T02:05:41.145Z,101540.31
2022-08-02T02:08:13.056Z,101550.91
2022-08-02T02:10:44.648Z,101545.41
2022-08-02T02:13:18.726Z,101545.06
2022-08-02T02:15:52.441Z,101550.84
2022-08-02T02:18:28.649Z,101551.56
2022-08-02T02:21:00.242Z,101558.38
2022-08-02T02:23:33.397Z,101561.69
2022-08-02T02:26:07.596Z,101555.94
2022-08-02T02:28:48.616Z,101558.06
2022-08-02T02:31:22.835Z,101560.19
2022-08-02T02:34:00.164Z,101564.78
2022-08-02T02:36:33.269Z,101563.06
2022-08-02T02:39:13.051Z,101557.03
2022-08-02T02:41:45.474Z,101556.00
2022-08-02T02:44:21.577Z,101558.97
2022-08-02T02:46:56.116Z,101560.22
2022-08-02T02:49:27.972Z,101563.84
2022-08-02T02:52:00.173Z,101554.75
2022-08-02T02:54:35.457Z,101559.66
2022-08-02T02:57:08.185Z,101557.09
2022-08-02T02:59:49.364Z,101559.25
2022-08-02T03:02:21.922Z,101561.59
2022-08-02T03:04:55.840Z,101566.16
2022-08-02T03:07:29.953Z,101559.28
2022-08-02T03:10:00.621Z,101559.00
2022-08-02T03:12:32.342Z,101565.00
2022-08-02T03:15:07.884Z,101550.66
2022-08-02T03:17:44.134Z,101554.88
2022-08-02T03:20:17.298Z,101556.41
2022-08-02T03:22:48.268Z,101566.06
2022-08-02T03:25:19.804Z,101550.66
2022-08-02T03:27:50.708Z,101560.03
2022-08-02T03:30:25.684Z,101556.13
2022-08-02T03:32:57.566Z,101552.75
2022-08-02T03:35:27.533Z,101557.38
2022-08-02T03:38:03.378Z,101545.78
2022-08-02T03:40:33.718Z,101552.00
2022-08-02T03:43:06.029Z,101548.25
2022-08-02T03:45:36.357Z,101546.75
2022-08-02T03:48:34.340Z,101541.75
2022-08-02T03:51:01.956Z,101543.31
2022-08-02T03:53:34.511Z,101543.97
2022-08-02T03:56:04.085Z,101541.09
2022-08-02T03:58:34.608Z,101544.91
2022-08-02T04:01:08.349Z,101546.91
2022-08-02T04:03:41.649Z,101540.88
2022-08-02T04:06:13.463Z,101544.56
2022-08-02T04:08:44.958Z,101546.53
2022-08-02T04:11:32.272Z,101545.84
2022-08-02T04:14:05.056Z,101553.94
2022-08-02T04:16:44.008Z,101549.56
2022-08-02T04:19:27.773Z,101559.47
2022-08-02T04:22:00.040Z,101557.91
2022-08-02T04:24:50.177Z,101553.53
2022-08-02T04:28:15.633Z,101562.50
2022-08-02T04:30:19.764Z,101564.34
2022-08-02T04:32:49.261Z,101572.28
2022-08-02T04:35:22.664Z,101566.81
2022-08-02T04:38:09.860Z,101571.22
2022-08-02T04:40:41.714Z,101579.06
2022-08-02T04:43:11.127Z,101579.91
2022-08-02T04:45:40.652Z,101582.47
2022-08-02T04:48:10.244Z,101586.72
2022-08-02T04:50:40.838Z,101579.47
2022-08-02T04:53:09.764Z,101582.78
2022-08-02T04:55:38.649Z,101588.28
2022-08-02T04:58:37.031Z,101586.53
2022-08-02T05:00:57.368Z,101597.03
2022-08-02T05:03:26.537Z,101586.28
2022-08-02T05:05:57.067Z,101589.63
2022-08-02T05:08:26.383Z,101594.94
2022-08-02T05:10:56.228Z,101588.56
2022-08-02T05:13:26.036Z,101587.59
2022-08-02T05:15:55.150Z,101584.91
2022-08-02T05:18:24.377Z,101590.09
2022-08-02T05:20:58.044Z,101579.31
2022-08-02T05:23:28.987Z,101584.06
2022-08-02T05:25:58.067Z,101587.09
2022-08-02T05:28:27.725Z,101584.63
2022-08-02T05:30:56.753Z,101579.13
2022-08-02T05:33:25.857Z,101573.09
2022-08-02T05:35:54.987Z,101572.22
2022-08-02T05:38:26.142Z,101574.06
2022-08-02T05:40:56.772Z,101576.69
2022-08-02T05:43:25.594Z,101578.03
2022-08-02T05:45:59.830Z,101581.88
2022-08-02T05:48:32.037Z,101582.41
2022-08-02T05:51:07.221Z,101580.22
2022-08-02T05:53:49.292Z,101561.16
2022-08-02T05:56:36.488Z,101555.47
2022-08-02T05:59:13.465Z,101552.81
2022-08-02T06:01:45.350Z,101562.72
2022-08-02T06:04:25.158Z,101558.59
2022-08-02T06:07:05.478Z,101564.34
2022-08-02T06:09:41.883Z,101562.47
2022-08-02T06:12:20.705Z,101564.28
2022-08-02T06:14:54.526Z,101562.09
2022-08-02T06:17:25.013Z,101568.44
2022-08-02T06:19:58.938Z,101563.97
2022-08-02T06:22:35.545Z,101576.47
2022-08-02T06:25:48.460Z,101576.06
2022-08-02T06:28:10.612Z,101584.41
2022-08-02T06:30:46.254Z,101576.75
2022-08-02T06:33:15.789Z,101584.53
2022-08-02T06:36:04.267Z,101585.53
2022-08-02T06:38:41.924Z,101602.25
2022-08-02T06:41:20.987Z,101602.47
2022-08-02T06:43:57.365Z,101595.25
2022-08-02T06:46:54.390Z,101597.81
2022-08-02T06:49:16.152Z,101594.63
2022-08-02T06:51:45.209Z,101588.75
2022-08-02T06:54:14.275Z,101576.97
2022-08-02T06:56:43.431Z,101572.03
2022-08-02T06:59:14.611Z,101576.22
2022-08-02T07:01:44.712Z,101562.13
2022-08-02T07:04:19.935Z,101568.69
2022-08-02T07:06:53.181Z,101568.06
2022-08-02T07:09:22.900Z,101564.66
2022-08-02T07:11:52.673Z,101566.03
2022-08-02T07:14:25.369Z,101563.69
2022-08-02T07:16:57.548Z,101569.16
2022-08-02T07:19:37.605Z,101569.00
2022-08-02T07:22:10.322Z,101559.19
2022-08-02T07:24:42.492Z,101558.72
2022-08-02T07:27:12.991Z,101551.53
2022-08-02T07:29:46.899Z,101565.28
2022-08-02T07:32:17.226Z,101558.47
2022-08-02T07:34:51.147Z,101557.84
2022-08-02T07:37:35.657Z,101565.19
2022-08-02T07:40:20.265Z,101555.97
2022-08-02T07:42:56.512Z,101563.91
2022-08-02T07:45:35.625Z,101545.28
2022-08-02T07:48:08.795Z,101552.41
2022-08-02T07:50:38.084Z,101551.97
2022-08-02T07:53:10.144Z,101548.84
2022-08-02T07:55:40.307Z,101557.75
2022-08-02T07:58:12.791Z,101556.59
2022-08-02T08:00:45.363Z,101551.13
2022-08-02T08:03:14.625Z,101552.25
2022-08-02T08:05:43.481Z,101543.53
2022-08-02T08:08:17.339Z,101543.34
2022-08-02T08:10:47.803Z,101548.66
2022-08-02T08:13:16.908Z,101530.09
2022-08-02T08:15:52.457Z,101532.56
2022-08-02T08:18:23.809Z,101535.03
2022-08-02T08:20:53.086Z,101518.28
2022-08-02T08:23:22.185Z,101519.09
2022-08-02T08:25:50.905Z,101533.34
2022-08-02T08:28:20.301Z,101527.22
2022-08-02T08:30:50.637Z,101531.47
2022-08-02T08:33:19.669Z,101547.59
2022-08-02T08:35:49.195Z,101554.38
2022-08-02T08:38:18.576Z,101539.91
2022-08-02T08:40:50.877Z,101547.84
2022-08-02T08:43:20.366Z,101546.16
2022-08-02T08:45:55.868Z,101547.78
2022-08-02T08:48:31.004Z,101549.47
2022-08-02T08:51:13.046Z,101543.84
2022-08-02T08:53:47.101Z,101540.28
2022-08-02T08:56:17.973Z,101545.81
2022-08-02T08:58:49.068Z,101550.53
2022-08-02T09:01:23.036Z,101546.09
2022-08-02T09:03:52.350Z,101551.31
2022-08-02T09:06:22.042Z,101535.25
2022-08-02T09:08:51.785Z,101533.19
2022-08-02T09:11:24.931Z,101523.31
2022-08-02T09:13:56.832Z,101511.31
2022-08-02T09:16:37.211Z,101500.94
2022-08-02T09:19:20.477Z,101499.03
2022-08-02T09:21:52.515Z,101499.94
2022-08-02T09:24:24.989Z,101491.13
2022-08-02T09:26:54.549Z,101493.88
2022-08-02T09:29:26.112Z,101479.47
2022-08-02T09:32:05.139Z,101487.03
2022-08-02T09:34:50.783Z,101493.16
2022-08-02T09:37:28.392Z,101481.13
2022-08-02T09:40:00.835Z,101483.97
2022-08-02T09:42:31.244Z,101479.47
2022-08-02T09:45:03.285Z,101483.16
2022-08-02T09:47:37.306Z,101478.41
2022-08-02T09:50:11.040Z,101467.88
2022-08-02T09:52:45.634Z,101466.94
2022-08-02T09:55:14.923Z,101480.47
2022-08-02T09:57:51.096Z,101467.84
2022-08-02T10:00:31.898Z,101469.56
2022-08-02T10:03:21.608Z,101472.44
2022-08-02T10:05:55.941Z,101476.72
2022-08-02T10:08:33.241Z,101485.63
2022-08-02T10:11:04.192Z,101467.94
2022-08-02T10:13:36.110Z,101473.56
2022-08-02T10:16:07.635Z,101461.09
2022-08-02T10:18:40.658Z,101456.06
2022-08-02T10:21:27.081Z,101450.06
2022-08-02T10:23:58.308Z,101465.13
2022-08-02T10:26:28.535Z,101452.38
2022-08-02T10:28:57.554Z,101445.28
2022-08-02T10:31:37.923Z,101456.00
2022-08-02T10:34:14.263Z,101450.50
2022-08-02T10:36:44.929Z,101450.19
2022-08-02T10:39:15.068Z,101437.56
2022-08-02T10:41:47.629Z,101435.97
2022-08-02T10:44:26.520Z,101433.34
2022-08-02T10:47:28.304Z,101435.16
2022-08-02T10:50:01.093Z,101438.22
2022-08-02T10:52:32.287Z,101434.84
2022-08-02T10:55:04.308Z,101432.72
2022-08-02T10:57:48.725Z,101434.81
2022-08-02T11:00:30.047Z,101459.44
2022-08-02T11:02:59.361Z,101455.41
2022-08-02T11:05:43.411Z,101456.84
2022-08-02T11:08:22.265Z,101451.88
2022-08-02T11:10:51.222Z,101453.88
2022-08-02T11:13:21.279Z,101436.72
2022-08-02T11:15:59.718Z,101457.34
2022-08-02T11:19:06.543Z,101452.59
2022-08-02T11:22:02.425Z,101441.00
2022-08-02T11:24:33.726Z,101430.47
2022-08-02T11:27:04.978Z,101432.91
2022-08-02T11:29:39.629Z,101436.28
2022-08-02T11:32:10.582Z,101432.91
2022-08-02T11:34:42.134Z,101438.59
2022-08-02T11:37:13.097Z,101440.16
2022-08-02T11:39:42.500Z,101422.78
2022-08-02T11:42:11.992Z,101428.22
2022-08-02T11:44:46.795Z,101418.31
2022-08-02T11:47:16.355Z,101415.31
2022-08-02T11:49:45.689Z,101402.38
2022-08-02T11:52:16.723Z,101408.19
2022-08-02T11:54:46.091Z,101420.31
2022-08-02T11:57:20.810Z,101404.56
2022-08-02T11:59:56.767Z,101411.66
2022-08-02T12:02:30.378Z,101414.94
2022-08-02T12:05:02.819Z,101421.72
2022-08-02T12:07:45.943Z,101417.28
2022-08-02T12:10:19.039Z,101409.25
2022-08-02T12:12:54.248Z,101405.00
2022-08-02T12:15:35.967Z,101388.91
2022-08-02T12:18:27.452Z,101402.41
2022-08-02T12:20:57.245Z,101376.88
2022-08-02T12:23:28.283Z,101397.50
2022-08-02T12:26:07.074Z,101392.78
2022-08-02T12:28:39.327Z,101387.06
2022-08-02T12:31:10.856Z,101388.13
2022-08-02T12:33:50.585Z,101390.47
2022-08-02T12:36:21.957Z,101377.72
2022-08-02T12:38:58.321Z,101386.00
2022-08-02T12:41:32.584Z,101371.78
2022-08-02T12:44:03.315Z,101374.72
2022-08-02T12:46:35.699Z,101369.06
2022-08-02T12:49:21.133Z,101374.50
2022-08-02T12:51:57.555Z,101371.13
2022-08-02T12:54:36.168Z,101370.63
2022-08-02T12:57:13.374Z,101358.72
2022-08-02T12:59:51.559Z,101370.78
2022-08-02T13:02:23.765Z,101367.94
2022-08-02T13:04:52.702Z,101356.47
2022-08-02T13:07:21.712Z,101362.97
2022-08-02T13:10:02.644Z,101353.72
2022-08-02T13:12:34.752Z,101343.84
2022-08-02T13:15:04.368Z,101347.47
2022-08-02T13:17:43.241Z,101341.41
2022-08-02T13:20:14.692Z,101336.63
2022-08-02T13:22:51.386Z,101335.56
2022-08-02T13:25:24.144Z,101337.94
2022-08-02T13:27:54.391Z,101341.16
2022-08-02T13:30:23.391Z,101344.69
2022-08-02T13:32:52.254Z,101342.94
2022-08-02T13:35:21.965Z,101326.25
2022-08-02T13:37:51.973Z,101334.91
2022-08-02T13:40:23.238Z,101328.72
2022-08-02T13:42:52.251Z,101320.06
2022-08-02T13:45:21.945Z,101323.69
2022-08-02T13:48:04.349Z,101311.78
2022-08-02T13:50:34.893Z,101325.19
2022-08-02T13:53:32.383Z,101324.53
2022-08-02T13:56:03.233Z,101320.41
2022-08-02T13:58:36.504Z,101316.47
2022-08-02T14:01:06.116Z,101326.97
2022-08-02T14:04:08.257Z,101327.91
2022-08-02T14:06:24.966Z,101319.81
2022-08-02T14:08:56.648Z,101311.38
2022-08-02T14:13:12.109Z,101298.63
2022-08-02T14:15:47.970Z,101307.91
2022-08-02T14:18:18.852Z,101294.63
2022-08-02T14:20:49.020Z,101300.72
2022-08-02T14:23:18.685Z,101299.88
2022-08-02T14:26:14.166Z,101310.66
2022-08-02T14:28:56.005Z,101306.84
2022-08-02T14:31:26.742Z,101303.59
2022-08-02T14:33:59.184Z,101302.72
2022-08-02T14:36:29.436Z,101305.72
2022-08-02T14:38:59.316Z,101296.31
2022-08-02T14:41:28.454Z,101298.31
2022-08-02T14:44:07.327Z,101309.09
2022-08-02T14:46:41.845Z,101306.16
2022-08-02T14:49:14.387Z,101298.75
2022-08-02T14:51:54.396Z,101300.94
2022-08-02T14:54:28.325Z,101307.25
2022-08-02T14:57:01.208Z,101306.78
2022-08-02T14:59:31.677Z,101308.06
2022-08-02T15:02:02.526Z,101303.09
2022-08-02T15:04:34.129Z,101301.78
2022-08-02T15:07:10.183Z,101302.06
2022-08-02T15:09:39.741Z,101297.06
2022-08-02T15:12:11.429Z,101285.03
2022-08-02T15:14:41.587Z,101297.38
2022-08-02T15:17:12.470Z,101298.63
2022-08-02T15:19:58.016Z,101287.88
2022-08-02T15:22:30.122Z,101275.56
2022-08-02T15:25:00.016Z,101283.88
2022-08-02T15:27:31.592Z,101277.59
2022-08-02T15:30:01.678Z,101284.06
2022-08-02T15:32:34.922Z,101273.50
2022-08-02T15:35:08.694Z,101270.97
2022-08-02T15:37:41.372Z,101264.38
2022-08-02T15:40:12.960Z,101269.47
2022-08-02T15:42:43.792Z,101271.56
2022-08-02T15:45:16.244Z,101273.91
2022-08-02T15:47:48.290Z,101269.69
2022-08-02T15:50:19.795Z,101276.06
2022-08-02T15:52:48.857Z,101269.69
2022-08-02T15:55:20.448Z,101273.06
2022-08-02T15:57:49.715Z,101278.13
2022-08-02T16:00:19.335Z,101281.47
2022-08-02T16:02:50.222Z,101267.50
2022-08-02T16:05:20.983Z,101279.38
2022-08-02T16:07:50.173Z,101276.84
2022-08-02T16:10:20.667Z,101275.13
2022-08-02T16:12:50.585Z,101273.88
2022-08-02T16:15:19.743Z,101265.56
2022-08-02T16:17:53.769Z,101266.59
2022-08-02T16:20:24.254Z,101261.09
2022-08-02T16:22:53.140Z,101253.94
2022-08-02T16:25:22.150Z,101253.06
2022-08-02T16:28:07.230Z,101262.16
2022-08-02T16:30:37.678Z,101270.41
2022-08-02T16:33:08.883Z,101268.50
2022-08-02T16:35:38.238Z,101267.88
2022-08-02T16:38:09.955Z,101267.66
2022-08-02T16:40:38.667Z,101271.47
2022-08-02T16:43:09.261Z,101268.50
2022-08-02T16:45:38.367Z,101274.22
2022-08-02T16:48:10.876Z,101266.59
2022-08-02T16:50:40.483Z,101272.38
2022-08-02T16:53:37.356Z,101271.34
2022-08-02T16:56:06.520Z,101272.22
2022-08-02T16:58:35.675Z,101270.97
2022-08-02T17:01:06.562Z,101268.56
2022-08-02T17:03:56.009Z,101269.59
2022-08-02T17:06:27.480Z,101272.13
2022-08-02T17:08:57.124Z,101268.53
2022-08-02T17:11:26.015Z,101264.06
2022-08-02T17:14:01.048Z,101262.22
2022-08-02T17:16:34.179Z,101262.50
2022-08-02T17:19:07.356Z,101264.63
2022-08-02T17:21:36.188Z,101258.22
2022-08-02T17:24:08.264Z,101260.38
2022-08-02T17:26:39.162Z,101266.31
2022-08-02T17:29:17.973Z,101270.09
2022-08-02T17:32:05.471Z,101263.13
2022-08-02T17:34:40.247Z,101275.16
2022-08-02T17:37:18.415Z,101281.50
2022-08-02T17:39:51.917Z,101268.94
2022-08-02T17:42:23.366Z,101265.72
2022-08-02T17:44:54.671Z,101266.03
2022-08-02T17:47:30.948Z,101272.81
2022-08-02T17:50:01.473Z,101275.91
2022-08-02T17:52:51.433Z,101271.69
2022-08-02T17:55:22.586Z,101274.47
2022-08-02T17:57:57.214Z,101271.53
2022-08-02T18:00:34.535Z,101275.75
2022-08-02T18:03:05.970Z,101280.50
2022-08-02T18:05:53.741Z,101275.22
2022-08-02T18:08:25.934Z,101281.22
2022-08-02T18:10:57.357Z,101275.16
2022-08-02T18:13:32.913Z,101278.47
2022-08-02T18:16:05.343Z,101278.88
2022-08-02T18:18:50.320Z,101280.50
2022-08-02T18:21:22.824Z,101277.94
2022-08-02T18:23:58.535Z,101274.94
2022-08-02T18:26:29.020Z,101271.44
2022-08-02T18:28:59.488Z,101279.06
2022-08-02T18:31:28.762Z,101287.63
2022-08-02T18:34:09.464Z,101281.28
2022-08-02T18:36:47.047Z,101276.88
2022-08-02T18:39:17.828Z,101274.19
2022-08-02T18:41:48.060Z,101271.19
2022-08-02T18:44:19.280Z,101265.59
2022-08-02T18:46:50.497Z,101276.72
2022-08-02T18:49:20.698Z,101267.34
2022-08-02T18:51:51.918Z,101269.59
2022-08-02T18:54:26.561Z,101268.56
2022-08-02T18:57:00.976Z,101274.41
2022-08-02T18:59:37.448Z,101276.38
2022-08-02T19:02:06.804Z,101276.44
2022-08-02T19:04:35.709Z,101270.09
2022-08-02T19:07:08.186Z,101276.56
2022-08-02T19:09:40.141Z,101284.47
2022-08-02T19:12:12.114Z,101286.22
2022-08-02T19:14:47.659Z,101291.72
2022-08-02T19:17:55.147Z,101295.22
2022-08-02T19:20:09.498Z,101290.34
2022-08-02T19:22:41.313Z,101294.09
2022-08-02T19:25:16.024Z,101289.50
2022-08-02T19:27:47.291Z,101290.50
2022-08-02T19:30:16.991Z,101290.34
2022-08-02T19:32:58.706Z,101287.13
2022-08-02T19:35:34.583Z,101297.00
2022-08-02T19:38:13.001Z,101301.47
2022-08-02T19:40:43.155Z,101308.75
2022-08-02T19:44:21.980Z,101310.88
2022-08-02T19:46:03.189Z,101306.34
2022-08-02T19:48:41.112Z,101303.78
2022-08-02T19:51:10.678Z,101314.84
2022-08-02T19:53:47.539Z,101301.53
2022-08-02T19:56:25.919Z,101294.09
2022-08-02T19:58:58.055Z,101291.38
2022-08-02T20:04:23.540Z,101273.28
2022-08-02T20:06:58.141Z,101275.16
2022-08-02T20:09:33.214Z,101267.81
2022-08-02T20:12:16.659Z,101266.66
2022-08-02T20:14:50.975Z,101275.53
2022-08-02T20:17:21.347Z,101268.72
2022-08-02T20:19:50.934Z,101264.78
2022-08-02T20:22:21.289Z,101265.31
2022-08-02T20:24:54.623Z,101269.03
2022-08-02T20:27:30.257Z,101269.25
2022-08-02T20:30:01.519Z,101263.94
2022-08-02T20:32:30.936Z,101266.66
2022-08-02T20:35:00.393Z,101257.38
2022-08-02T20:37:59.343Z,101262.81
2022-08-02T20:40:20.817Z,101270.13
2022-08-02T20:42:49.747Z,101277.16
2022-08-02T20:45:20.108Z,101294.78
2022-08-02T20:47:52.517Z,101284.75
2022-08-02T20:50:43.356Z,101286.22
2022-08-02T20:53:23.775Z,101275.19
2022-08-02T20:55:57.891Z,101281.81
2022-08-02T20:58:28.036Z,101282.50
2022-08-02T21:01:00.201Z,101275.13
2022-08-02T21:03:38.833Z,101271.84
2022-08-02T21:06:10.219Z,101258.06
2022-08-02T21:08:46.228Z,101255.81
2022-08-02T21:11:18.033Z,101249.84
2022-08-02T21:14:06.549Z,101246.47
2022-08-02T21:16:36.481Z,101252.47
2022-08-02T21:19:09.765Z,101250.00
2022-08-02T21:21:39.994Z,101250.38
2022-08-02T21:24:12.342Z,101250.03
2022-08-02T21:26:43.019Z,101249.38
2022-08-02T21:29:17.619Z,101243.59
2022-08-02T21:31:46.897Z,101244.81
2022-08-02T21:34:22.586Z,101241.97
2022-08-02T21:36:56.625Z,101236.84
2022-08-02T21:39:28.050Z,101240.28
2022-08-02T21:42:02.031Z,101241.34
2022-08-02T21:44:37.585Z,101240.00
2022-08-02T21:47:14.578Z,101235.38
2022-08-02T21:50:13.239Z,101234.53
2022-08-02T21:52:37.962Z,101232.00
2022-08-02T21:55:14.979Z,101234.91
2022-08-02T21:57:45.868Z,101235.25
2022-08-02T22:00:28.213Z,101241.72
2022-08-02T22:02:58.150Z,101246.53
2022-08-02T22:05:28.644Z,101240.22
2022-08-02T22:08:07.638Z,101246.53
2022-08-02T22:10:55.358Z,101241.94
2022-08-02T22:13:25.926Z,101247.19
2022-08-02T22:16:08.114Z,101252.66
2022-08-02T22:18:37.743Z,101254.38
2022-08-02T22:21:13.992Z,101248.41
2022-08-02T22:23:51.251Z,101249.81
2022-08-02T22:26:24.307Z,101252.84
2022-08-02T22:28:59.680Z,101257.13
2022-08-02T22:31:40.823Z,101246.88
2022-08-02T22:34:11.590Z,101258.66
2022-08-02T22:36:56.155Z,101255.91
2022-08-02T22:39:26.151Z,101255.56
2022-08-02T22:42:05.900Z,101253.72
2022-08-02T22:44:46.124Z,101267.75
2022-08-02T22:47:15.297Z,101267.47
2022-08-02T22:49:53.019Z,101257.25
2022-08-02T22:52:24.057Z,101268.34
2022-08-02T22:54:57.048Z,101263.06
2022-08-02T22:57:30.898Z,101266.81
2022-08-02T22:58:54.159Z,101281.81
2022-08-02T23:00:04.501Z,101260.53
2022-08-02T23:02:33.523Z,101262.38
2022-08-02T23:05:02.467Z,101251.28
2022-08-02T23:07:36.191Z,101256.91
2022-08-02T23:10:11.211Z,101258.28
2022-08-02T23:12:40.953Z,101255.56
2022-08-02T23:15:13.622Z,101259.28
2022-08-02T23:18:01.217Z,101256.09
2022-08-02T23:20:30.796Z,101252.88
2022-08-02T23:23:00.374Z,101254.91
2022-08-02T23:25:29.046Z,101247.06
2022-08-02T23:28:00.538Z,101249.13
2022-08-02T23:30:32.181Z,101253.56
2022-08-02T23:33:04.714Z,101242.66
2022-08-02T23:35:35.683Z,101241.59
2022-08-02T23:38:05.294Z,101245.19
2022-08-02T23:40:40.285Z,101249.78
2022-08-02T23:43:14.800Z,101242.66
2022-08-02T23:45:46.927Z,101247.06
2022-08-02T23:48:17.585Z,101245.19
2022-08-02T23:50:49.846Z,101246.22
2022-08-02T23:53:23.919Z,101241.59
2022-08-02T23:55:58.256Z,101241.59
2022-08-02T23:58:28.658Z,101241.97
